VLG39MK LEBL-GCLP
Flight info
| Callsign | VLG39MK |
|---|---|
| Flight time | 3h 23m |
| Altitude | 37000 |
| Route | LOTOS DCT TORDU DCT DIKUT DCT SOPET DCT VLC DCT SERRA DCT ASTRO DCT POBOS DCT XEBAR DCT YES DCT MAMIS DCT BAZAS DCT VIBAS DCT MGA DCT BRIKE DCT VJF L82 RUNAX UL82 IBALU UN857 TERTO |
| Aircraft | A20N/M-SDE2E3FGHIRWXY/LB1 |
Departure
| Time | 2026-05-04 17:29 |
|---|---|
| Airport | Josep Tarradellas Barcelona-El Prat Airport (LEBL) |
Arrival
| Time | 2026-05-04 20:52 |
|---|---|
| Airport | Gran Canaria Airport (GCLP) |
| Time | Latitude | Longitude | Altitude | Speed | Heading |
|---|---|---|---|---|---|
| 2026-05-04 16:50 | 41.29050 | 2.08115 | 2 ft | 0 kts | 335° |
| 2026-05-04 17:16 | 41.29028 | 2.08127 | 2 ft | 2 kts | 341° |
| 2026-05-04 17:17 | 41.29013 | 2.08134 | 4 ft | 2 kts | 347° |
| 2026-05-04 17:17 | 41.28967 | 2.08121 | 3 ft | 2 kts | 58° |
| 2026-05-04 17:18 | 41.28963 | 2.08112 | 3 ft | 1 kts | 64° |
| 2026-05-04 17:18 | 41.28963 | 2.08111 | 5 ft | 0 kts | 64° |
| 2026-05-04 17:20 | 41.28963 | 2.08112 | 3 ft | 0 kts | 73° |
| 2026-05-04 17:20 | 41.28956 | 2.08118 | 3 ft | 3 kts | 138° |
| 2026-05-04 17:21 | 41.28854 | 2.08181 | 2 ft | 11 kts | 155° |
| 2026-05-04 17:21 | 41.28714 | 2.08253 | 3 ft | 9 kts | 129° |
| 2026-05-04 17:22 | 41.28713 | 2.08292 | 4 ft | 0 kts | 71° |
| 2026-05-04 17:23 | 41.28729 | 2.08343 | 4 ft | 5 kts | 65° |
| 2026-05-04 17:23 | 41.28747 | 2.08394 | 8 ft | 7 kts | 65° |
| 2026-05-04 17:23 | 41.28807 | 2.08568 | 9 ft | 17 kts | 65° |
| 2026-05-04 17:24 | 41.28863 | 2.08731 | 3 ft | 21 kts | 66° |
| 2026-05-04 17:24 | 41.29064 | 2.09314 | 3 ft | 23 kts | 66° |
| 2026-05-04 17:25 | 41.29125 | 2.09496 | 3 ft | 22 kts | 66° |
| 2026-05-04 17:25 | 41.29250 | 2.09862 | 3 ft | 20 kts | 65° |
| 2026-05-04 17:26 | 41.29310 | 2.10148 | 3 ft | 12 kts | 112° |
| 2026-05-04 17:26 | 41.29262 | 2.10290 | 4 ft | 7 kts | 128° |
| 2026-05-04 17:27 | 41.29201 | 2.10270 | 5 ft | 0 kts | 243° |
| 2026-05-04 17:27 | 41.29127 | 2.10073 | 5 ft | 61 kts | 243° |
| 2026-05-04 17:28 | 41.28399 | 2.07964 | 303 ft | 160 kts | 243° |
| 2026-05-04 17:29 | 41.25708 | 2.06122 | 2315 ft | 173 kts | 176° |
| 2026-05-04 17:29 | 41.21546 | 2.06092 | 3959 ft | 215 kts | 184° |
| 2026-05-04 17:30 | 41.17031 | 2.05521 | 6447 ft | 221 kts | 189° |
| 2026-05-04 17:31 | 41.13967 | 2.04891 | 8042 ft | 223 kts | 193° |
| 2026-05-04 17:31 | 41.09777 | 2.02120 | 10084 ft | 240 kts | 225° |
| 2026-05-04 17:32 | 41.07503 | 1.98866 | 11669 ft | 244 kts | 237° |
| 2026-05-04 17:33 | 41.05841 | 1.92131 | 13246 ft | 284 kts | 253° |
| 2026-05-04 17:33 | 41.05305 | 1.89545 | 13447 ft | 306 kts | 251° |
| 2026-05-04 17:34 | 41.02826 | 1.81105 | 14859 ft | 335 kts | 247° |
| 2026-05-04 17:34 | 41.01977 | 1.78250 | 15522 ft | 338 kts | 247° |
| 2026-05-04 17:35 | 40.99354 | 1.69440 | 17494 ft | 347 kts | 247° |
| 2026-05-04 17:35 | 40.97560 | 1.63439 | 18719 ft | 352 kts | 247° |
| 2026-05-04 17:35 | 40.96654 | 1.60410 | 19306 ft | 354 kts | 247° |
| 2026-05-04 17:36 | 40.95753 | 1.57405 | 19889 ft | 356 kts | 247° |
| 2026-05-04 17:36 | 40.94948 | 1.54293 | 20454 ft | 359 kts | 251° |
| 2026-05-04 17:36 | 40.94189 | 1.51125 | 21013 ft | 361 kts | 247° |
| 2026-05-04 17:36 | 40.92937 | 1.48254 | 21555 ft | 362 kts | 231° |
| 2026-05-04 17:37 | 40.91169 | 1.45855 | 22096 ft | 365 kts | 225° |
| 2026-05-04 17:37 | 40.89325 | 1.43534 | 22653 ft | 367 kts | 225° |
| 2026-05-04 17:37 | 40.87476 | 1.41226 | 23178 ft | 370 kts | 225° |
| 2026-05-04 17:37 | 40.85599 | 1.38873 | 23685 ft | 372 kts | 225° |
| 2026-05-04 17:38 | 40.83764 | 1.36561 | 24113 ft | 374 kts | 225° |
| 2026-05-04 17:38 | 40.81875 | 1.34173 | 24563 ft | 376 kts | 225° |
| 2026-05-04 17:38 | 40.80005 | 1.31808 | 24985 ft | 378 kts | 225° |
| 2026-05-04 17:38 | 40.78093 | 1.29390 | 25412 ft | 380 kts | 225° |
| 2026-05-04 17:39 | 40.74251 | 1.24535 | 26242 ft | 384 kts | 225° |
| 2026-05-04 17:39 | 40.72303 | 1.22078 | 26626 ft | 386 kts | 225° |
| 2026-05-04 17:39 | 40.70382 | 1.19656 | 27001 ft | 389 kts | 225° |
| 2026-05-04 17:40 | 40.68421 | 1.17187 | 27385 ft | 391 kts | 225° |
| 2026-05-04 17:40 | 40.66453 | 1.14711 | 27757 ft | 392 kts | 225° |
| 2026-05-04 17:40 | 40.64471 | 1.12218 | 28100 ft | 395 kts | 225° |
| 2026-05-04 17:40 | 40.62473 | 1.09708 | 28450 ft | 397 kts | 225° |
| 2026-05-04 17:41 | 40.60467 | 1.07191 | 28792 ft | 399 kts | 225° |
| 2026-05-04 17:41 | 40.58450 | 1.04662 | 29125 ft | 400 kts | 225° |
| 2026-05-04 17:41 | 40.56446 | 1.02151 | 29440 ft | 402 kts | 225° |
| 2026-05-04 17:41 | 40.54441 | 0.99571 | 29760 ft | 404 kts | 228° |
| 2026-05-04 17:42 | 40.52535 | 0.96843 | 30056 ft | 405 kts | 228° |
| 2026-05-04 17:42 | 40.50624 | 0.94103 | 30350 ft | 406 kts | 228° |
| 2026-05-04 17:42 | 40.48708 | 0.91359 | 30638 ft | 408 kts | 228° |
| 2026-05-04 17:42 | 40.46806 | 0.88643 | 30934 ft | 409 kts | 228° |
| 2026-05-04 17:43 | 40.44874 | 0.85890 | 31261 ft | 408 kts | 228° |
| 2026-05-04 17:43 | 40.42952 | 0.83153 | 31668 ft | 406 kts | 228° |
| 2026-05-04 17:43 | 40.41034 | 0.80426 | 32035 ft | 405 kts | 228° |
| 2026-05-04 17:43 | 40.39125 | 0.77713 | 32381 ft | 404 kts | 228° |
| 2026-05-04 17:44 | 40.37217 | 0.75003 | 32745 ft | 403 kts | 228° |
| 2026-05-04 17:44 | 40.35339 | 0.72338 | 33102 ft | 401 kts | 228° |
| 2026-05-04 17:44 | 40.33446 | 0.69655 | 33430 ft | 400 kts | 228° |
| 2026-05-04 17:44 | 40.31558 | 0.66981 | 33750 ft | 399 kts | 228° |
| 2026-05-04 17:45 | 40.29672 | 0.64313 | 34046 ft | 398 kts | 228° |
| 2026-05-04 17:45 | 40.27789 | 0.61651 | 34288 ft | 397 kts | 229° |
| 2026-05-04 17:45 | 40.25907 | 0.58992 | 34504 ft | 397 kts | 229° |
| 2026-05-04 17:45 | 40.24029 | 0.56342 | 34721 ft | 397 kts | 229° |
| 2026-05-04 17:46 | 40.22148 | 0.53690 | 34943 ft | 397 kts | 229° |
| 2026-05-04 17:46 | 40.20286 | 0.51067 | 35158 ft | 397 kts | 229° |
| 2026-05-04 17:46 | 40.18402 | 0.48416 | 35358 ft | 397 kts | 229° |
| 2026-05-04 17:46 | 40.16520 | 0.45769 | 35570 ft | 396 kts | 229° |
| 2026-05-04 17:47 | 40.14638 | 0.43126 | 35758 ft | 396 kts | 229° |
| 2026-05-04 17:47 | 40.12755 | 0.40482 | 35960 ft | 396 kts | 229° |
| 2026-05-04 17:47 | 40.10877 | 0.37849 | 36135 ft | 396 kts | 229° |
| 2026-05-04 17:47 | 40.08996 | 0.35213 | 36310 ft | 396 kts | 229° |
| 2026-05-04 17:48 | 40.07139 | 0.32613 | 36491 ft | 395 kts | 229° |
| 2026-05-04 17:48 | 40.05263 | 0.29988 | 36655 ft | 395 kts | 229° |
| 2026-05-04 17:48 | 40.03382 | 0.27359 | 36816 ft | 395 kts | 229° |
| 2026-05-04 17:48 | 40.02113 | 0.25587 | 36917 ft | 395 kts | 229° |
| 2026-05-04 17:49 | 39.98388 | 0.20390 | 36932 ft | 394 kts | 229° |
| 2026-05-04 17:49 | 39.94638 | 0.15166 | 36919 ft | 393 kts | 229° |
| 2026-05-04 17:50 | 39.91038 | 0.10163 | 36964 ft | 377 kts | 229° |
| 2026-05-04 17:50 | 39.89327 | 0.07797 | 36993 ft | 342 kts | 229° |
| 2026-05-04 17:50 | 39.87777 | 0.05653 | 36909 ft | 314 kts | 230° |
| 2026-05-04 17:51 | 39.86335 | 0.03658 | 36906 ft | 290 kts | 230° |
| 2026-05-04 17:51 | 39.85001 | 0.01808 | 36892 ft | 270 kts | 230° |
| 2026-05-04 17:51 | 39.83753 | 0.00077 | 36892 ft | 254 kts | 230° |
| 2026-05-04 17:51 | 39.82573 | -0.01560 | 36892 ft | 240 kts | 231° |
| 2026-05-04 17:52 | 39.81468 | -0.03092 | 36895 ft | 229 kts | 231° |
| 2026-05-04 17:52 | 39.80382 | -0.04600 | 36745 ft | 231 kts | 231° |
| 2026-05-04 17:52 | 39.79209 | -0.06253 | 35506 ft | 272 kts | 231° |
| 2026-05-04 17:52 | 39.77886 | -0.08219 | 34740 ft | 298 kts | 232° |
| 2026-05-04 17:53 | 39.76516 | -0.10310 | 34606 ft | 306 kts | 231° |
| 2026-05-04 17:53 | 39.75134 | -0.12373 | 34677 ft | 308 kts | 230° |
| 2026-05-04 17:53 | 39.72227 | -0.16503 | 34888 ft | 310 kts | 227° |
| 2026-05-04 17:54 | 39.69160 | -0.20539 | 34964 ft | 315 kts | 228° |
| 2026-05-04 17:54 | 39.67629 | -0.22576 | 35133 ft | 313 kts | 229° |
| 2026-05-04 17:54 | 39.66144 | -0.24592 | 35302 ft | 312 kts | 230° |
| 2026-05-04 17:55 | 39.64659 | -0.26651 | 35431 ft | 312 kts | 230° |
| 2026-05-04 17:55 | 39.63192 | -0.28732 | 35507 ft | 313 kts | 231° |
| 2026-05-04 17:55 | 39.60295 | -0.32978 | 35644 ft | 315 kts | 231° |
| 2026-05-04 17:56 | 39.57246 | -0.37095 | 35647 ft | 324 kts | 228° |
| 2026-05-04 17:56 | 39.55618 | -0.39183 | 35473 ft | 333 kts | 223° |
| 2026-05-04 17:56 | 39.53950 | -0.41352 | 35214 ft | 344 kts | 229° |
| 2026-05-04 17:57 | 39.52290 | -0.43652 | 35055 ft | 353 kts | 229° |
| 2026-05-04 17:57 | 39.50563 | -0.45887 | 35386 ft | 348 kts | 227° |
| 2026-05-04 17:57 | 39.48861 | -0.48079 | 35752 ft | 342 kts | 230° |
| 2026-05-04 17:57 | 39.47369 | -0.50388 | 36119 ft | 334 kts | 234° |
| 2026-05-04 17:58 | 39.45969 | -0.52748 | 36502 ft | 327 kts | 235° |
| 2026-05-04 17:58 | 39.44606 | -0.55064 | 36697 ft | 326 kts | 235° |
| 2026-05-04 17:58 | 39.43188 | -0.57490 | 36125 ft | 344 kts | 233° |
| 2026-05-04 17:58 | 39.41763 | -0.60009 | 36094 ft | 347 kts | 234° |
| 2026-05-04 17:59 | 39.40411 | -0.62591 | 35978 ft | 354 kts | 239° |
| 2026-05-04 17:59 | 39.39014 | -0.65264 | 35894 ft | 362 kts | 234° |
| 2026-05-04 18:00 | 39.34149 | -0.72993 | 35896 ft | 376 kts | 233° |
| 2026-05-04 18:00 | 39.30918 | -0.78369 | 35892 ft | 385 kts | 234° |
| 2026-05-04 18:01 | 39.27626 | -0.83943 | 35905 ft | 395 kts | 234° |
| 2026-05-04 18:01 | 39.25956 | -0.86771 | 36017 ft | 395 kts | 234° |
| 2026-05-04 18:01 | 39.24289 | -0.89587 | 36272 ft | 393 kts | 234° |
| 2026-05-04 18:02 | 39.20990 | -0.95154 | 36641 ft | 392 kts | 235° |
| 2026-05-04 18:02 | 39.19332 | -0.97950 | 36798 ft | 392 kts | 235° |
| 2026-05-04 18:02 | 39.17671 | -1.00748 | 36905 ft | 393 kts | 235° |
| 2026-05-04 18:02 | 39.16010 | -1.03543 | 36915 ft | 392 kts | 235° |
| 2026-05-04 18:03 | 39.12695 | -1.09114 | 36920 ft | 391 kts | 235° |
| 2026-05-04 18:03 | 39.09394 | -1.14652 | 36922 ft | 391 kts | 235° |
| 2026-05-04 18:04 | 39.06080 | -1.20203 | 36928 ft | 390 kts | 235° |
| 2026-05-04 18:05 | 39.01123 | -1.28489 | 36954 ft | 392 kts | 235° |
| 2026-05-04 18:05 | 38.97783 | -1.34057 | 36943 ft | 390 kts | 235° |
| 2026-05-04 18:06 | 38.92819 | -1.42318 | 36943 ft | 391 kts | 235° |
| 2026-05-04 18:06 | 38.89494 | -1.47839 | 36944 ft | 390 kts | 235° |
| 2026-05-04 18:07 | 38.86189 | -1.53317 | 36948 ft | 390 kts | 235° |
| 2026-05-04 18:07 | 38.82862 | -1.58823 | 36953 ft | 389 kts | 235° |
| 2026-05-04 18:08 | 38.79538 | -1.64314 | 36946 ft | 389 kts | 235° |
| 2026-05-04 18:08 | 38.76233 | -1.69764 | 36943 ft | 389 kts | 235° |
| 2026-05-04 18:09 | 38.69604 | -1.80670 | 36950 ft | 388 kts | 235° |
| 2026-05-04 18:10 | 38.66278 | -1.86127 | 36953 ft | 388 kts | 235° |
| 2026-05-04 18:10 | 38.62976 | -1.91537 | 36958 ft | 387 kts | 235° |
| 2026-05-04 18:11 | 38.59649 | -1.96977 | 36960 ft | 387 kts | 235° |
| 2026-05-04 18:11 | 38.56331 | -2.02395 | 36963 ft | 386 kts | 235° |
| 2026-05-04 18:12 | 38.53031 | -2.07773 | 36968 ft | 386 kts | 235° |
| 2026-05-04 18:12 | 38.49712 | -2.13175 | 36967 ft | 386 kts | 235° |
| 2026-05-04 18:13 | 38.46392 | -2.18567 | 36971 ft | 386 kts | 235° |
| 2026-05-04 18:14 | 38.41404 | -2.26655 | 36985 ft | 386 kts | 235° |
| 2026-05-04 18:14 | 38.38088 | -2.32020 | 36977 ft | 386 kts | 235° |
| 2026-05-04 18:15 | 38.30904 | -2.42226 | 36980 ft | 389 kts | 231° |
| 2026-05-04 18:16 | 38.27171 | -2.47238 | 36982 ft | 389 kts | 231° |
| 2026-05-04 18:16 | 38.23446 | -2.52232 | 36982 ft | 389 kts | 231° |
| 2026-05-04 18:17 | 38.17878 | -2.59682 | 37000 ft | 390 kts | 231° |
| 2026-05-04 18:18 | 38.12272 | -2.67161 | 36998 ft | 388 kts | 231° |
| 2026-05-04 18:18 | 38.08539 | -2.72134 | 37001 ft | 389 kts | 231° |
| 2026-05-04 18:19 | 38.02964 | -2.79547 | 36997 ft | 389 kts | 231° |
| 2026-05-04 18:19 | 37.99221 | -2.84516 | 36992 ft | 388 kts | 231° |
| 2026-05-04 18:20 | 37.95492 | -2.89455 | 37000 ft | 388 kts | 231° |
| 2026-05-04 18:20 | 37.91745 | -2.94412 | 36992 ft | 388 kts | 231° |
| 2026-05-04 18:21 | 37.88030 | -2.99317 | 36990 ft | 388 kts | 231° |
| 2026-05-04 18:21 | 37.84287 | -3.04253 | 36989 ft | 388 kts | 231° |
| 2026-05-04 18:22 | 37.80543 | -3.09181 | 36986 ft | 389 kts | 231° |
| 2026-05-04 18:22 | 37.76792 | -3.14111 | 36988 ft | 387 kts | 231° |
| 2026-05-04 18:23 | 37.73076 | -3.18989 | 36985 ft | 388 kts | 231° |
| 2026-05-04 18:23 | 37.69323 | -3.23908 | 36989 ft | 388 kts | 231° |
| 2026-05-04 18:24 | 37.65579 | -3.28804 | 36987 ft | 386 kts | 231° |
| 2026-05-04 18:24 | 37.61859 | -3.33664 | 36982 ft | 386 kts | 231° |
| 2026-05-04 18:25 | 37.58125 | -3.38534 | 36982 ft | 385 kts | 231° |
| 2026-05-04 18:25 | 37.54413 | -3.43368 | 36983 ft | 384 kts | 231° |
| 2026-05-04 18:26 | 37.50685 | -3.48215 | 36983 ft | 384 kts | 231° |
| 2026-05-04 18:26 | 37.46982 | -3.53024 | 36983 ft | 384 kts | 231° |
| 2026-05-04 18:27 | 37.43255 | -3.57855 | 36995 ft | 384 kts | 231° |
| 2026-05-04 18:27 | 37.39528 | -3.62680 | 36996 ft | 385 kts | 231° |
| 2026-05-04 18:28 | 37.35815 | -3.67478 | 37009 ft | 384 kts | 231° |
| 2026-05-04 18:28 | 37.32078 | -3.72301 | 37017 ft | 384 kts | 231° |
| 2026-05-04 18:29 | 37.28335 | -3.77124 | 37018 ft | 385 kts | 231° |
| 2026-05-04 18:29 | 37.24594 | -3.81937 | 37019 ft | 385 kts | 231° |
| 2026-05-04 18:30 | 37.18980 | -3.89147 | 37021 ft | 386 kts | 231° |
| 2026-05-04 18:31 | 37.15220 | -3.93966 | 37025 ft | 387 kts | 231° |
| 2026-05-04 18:31 | 37.11469 | -3.98767 | 37021 ft | 387 kts | 231° |
| 2026-05-04 18:32 | 37.07698 | -4.03584 | 37006 ft | 386 kts | 231° |
| 2026-05-04 18:32 | 37.03932 | -4.08390 | 36996 ft | 386 kts | 231° |
| 2026-05-04 18:33 | 37.00169 | -4.13184 | 36987 ft | 385 kts | 231° |
| 2026-05-04 18:33 | 36.96429 | -4.17941 | 36970 ft | 384 kts | 231° |
| 2026-05-04 18:34 | 36.92657 | -4.22736 | 36986 ft | 388 kts | 231° |
| 2026-05-04 18:34 | 36.88874 | -4.27532 | 36972 ft | 385 kts | 231° |
| 2026-05-04 18:35 | 36.85133 | -4.32268 | 36968 ft | 386 kts | 231° |
| 2026-05-04 18:35 | 36.82269 | -4.36508 | 36963 ft | 380 kts | 240° |
| 2026-05-04 18:36 | 36.79565 | -4.43303 | 36970 ft | 375 kts | 252° |
| 2026-05-04 18:36 | 36.77803 | -4.49433 | 36971 ft | 376 kts | 252° |
| 2026-05-04 18:37 | 36.76317 | -4.54528 | 36959 ft | 375 kts | 252° |
| 2026-05-04 18:37 | 36.74522 | -4.60665 | 36972 ft | 376 kts | 252° |
| 2026-05-04 18:38 | 36.72736 | -4.66760 | 36970 ft | 376 kts | 252° |
| 2026-05-04 18:38 | 36.70935 | -4.72894 | 36972 ft | 376 kts | 252° |
| 2026-05-04 18:39 | 36.69130 | -4.79027 | 36979 ft | 377 kts | 252° |
| 2026-05-04 18:39 | 36.67332 | -4.85122 | 36981 ft | 375 kts | 252° |
| 2026-05-04 18:40 | 36.65532 | -4.91216 | 36996 ft | 374 kts | 252° |
| 2026-05-04 18:40 | 36.63722 | -4.97325 | 37010 ft | 376 kts | 252° |
| 2026-05-04 18:41 | 36.61917 | -5.03408 | 37028 ft | 376 kts | 252° |
| 2026-05-04 18:41 | 36.60101 | -5.09512 | 37007 ft | 374 kts | 252° |
| 2026-05-04 18:42 | 36.58294 | -5.15575 | 37023 ft | 376 kts | 252° |
| 2026-05-04 18:42 | 36.56468 | -5.21688 | 37038 ft | 376 kts | 252° |
| 2026-05-04 18:43 | 36.54647 | -5.27771 | 37045 ft | 374 kts | 252° |
| 2026-05-04 18:43 | 36.52830 | -5.33825 | 37044 ft | 376 kts | 252° |
| 2026-05-04 18:44 | 36.50984 | -5.39919 | 37057 ft | 377 kts | 250° |
| 2026-05-04 18:44 | 36.48562 | -5.45727 | 37051 ft | 381 kts | 243° |
| 2026-05-04 18:45 | 36.45865 | -5.51410 | 37047 ft | 379 kts | 244° |
| 2026-05-04 18:45 | 36.43216 | -5.57023 | 37042 ft | 380 kts | 243° |
| 2026-05-04 18:46 | 36.40535 | -5.62691 | 37047 ft | 380 kts | 243° |
| 2026-05-04 18:46 | 36.37845 | -5.68364 | 37050 ft | 380 kts | 243° |
| 2026-05-04 18:47 | 36.35166 | -5.74003 | 37051 ft | 380 kts | 243° |
| 2026-05-04 18:47 | 36.32489 | -5.79628 | 37051 ft | 380 kts | 243° |
| 2026-05-04 18:48 | 36.29797 | -5.85277 | 37050 ft | 380 kts | 243° |
| 2026-05-04 18:48 | 36.27106 | -5.90913 | 37049 ft | 379 kts | 243° |
| 2026-05-04 18:49 | 36.24413 | -5.96532 | 37042 ft | 379 kts | 242° |
| 2026-05-04 18:49 | 36.21297 | -6.01853 | 37044 ft | 382 kts | 238° |
| 2026-05-04 18:50 | 36.18074 | -6.07095 | 37045 ft | 382 kts | 238° |
| 2026-05-04 18:50 | 36.14875 | -6.12304 | 37051 ft | 382 kts | 238° |
| 2026-05-04 18:51 | 36.11652 | -6.17542 | 37051 ft | 382 kts | 238° |
| 2026-05-04 18:51 | 36.08427 | -6.22775 | 37051 ft | 382 kts | 238° |
| 2026-05-04 18:52 | 36.05218 | -6.27972 | 37058 ft | 382 kts | 238° |
| 2026-05-04 18:52 | 36.01983 | -6.33205 | 37059 ft | 382 kts | 238° |
| 2026-05-04 18:53 | 35.98768 | -6.38397 | 37065 ft | 382 kts | 238° |
| 2026-05-04 18:53 | 35.95525 | -6.43628 | 37066 ft | 383 kts | 238° |
| 2026-05-04 18:54 | 35.92282 | -6.48850 | 37066 ft | 383 kts | 238° |
| 2026-05-04 18:54 | 35.89059 | -6.54031 | 37070 ft | 383 kts | 238° |
| 2026-05-04 18:55 | 35.85810 | -6.59244 | 37068 ft | 383 kts | 238° |
| 2026-05-04 18:55 | 35.80948 | -6.67030 | 37075 ft | 383 kts | 237° |
| 2026-05-04 18:56 | 35.77694 | -6.72232 | 37076 ft | 383 kts | 238° |
| 2026-05-04 18:56 | 35.74438 | -6.77433 | 37075 ft | 383 kts | 237° |
| 2026-05-04 18:57 | 35.71183 | -6.82626 | 37076 ft | 383 kts | 237° |
| 2026-05-04 18:57 | 35.67945 | -6.87780 | 37074 ft | 383 kts | 237° |
| 2026-05-04 18:58 | 35.64689 | -6.92956 | 37076 ft | 383 kts | 237° |
| 2026-05-04 18:58 | 35.61424 | -6.98138 | 37080 ft | 383 kts | 237° |
| 2026-05-04 18:59 | 35.58156 | -7.03318 | 37081 ft | 383 kts | 237° |
| 2026-05-04 18:59 | 35.54910 | -7.08454 | 37081 ft | 383 kts | 237° |
| 2026-05-04 19:00 | 35.51635 | -7.13631 | 37082 ft | 383 kts | 237° |
| 2026-05-04 19:00 | 35.48366 | -7.18788 | 37083 ft | 383 kts | 237° |
| 2026-05-04 19:01 | 35.45090 | -7.23949 | 37085 ft | 383 kts | 237° |
| 2026-05-04 19:01 | 35.41827 | -7.29081 | 37089 ft | 383 kts | 237° |
| 2026-05-04 19:02 | 35.38542 | -7.34242 | 37089 ft | 383 kts | 237° |
| 2026-05-04 19:02 | 35.35270 | -7.39373 | 37091 ft | 383 kts | 237° |
| 2026-05-04 19:03 | 35.31977 | -7.44530 | 37098 ft | 383 kts | 237° |
| 2026-05-04 19:03 | 35.28683 | -7.49682 | 37096 ft | 384 kts | 237° |
| 2026-05-04 19:04 | 35.25409 | -7.54794 | 37099 ft | 383 kts | 237° |
| 2026-05-04 19:04 | 35.22112 | -7.59936 | 37112 ft | 383 kts | 237° |
| 2026-05-04 19:05 | 35.18814 | -7.65069 | 37110 ft | 383 kts | 237° |
| 2026-05-04 19:05 | 35.15533 | -7.70171 | 37105 ft | 383 kts | 237° |
| 2026-05-04 19:06 | 35.12231 | -7.75297 | 37095 ft | 383 kts | 236° |
| 2026-05-04 19:06 | 35.08926 | -7.80420 | 37092 ft | 383 kts | 236° |
| 2026-05-04 19:07 | 35.05639 | -7.85508 | 37101 ft | 383 kts | 236° |
| 2026-05-04 19:07 | 35.02329 | -7.90624 | 37101 ft | 383 kts | 236° |
| 2026-05-04 19:08 | 34.99036 | -7.95707 | 37097 ft | 383 kts | 236° |
| 2026-05-04 19:08 | 34.95724 | -8.00811 | 37099 ft | 383 kts | 236° |
| 2026-05-04 19:09 | 34.92407 | -8.05915 | 37094 ft | 383 kts | 236° |
| 2026-05-04 19:09 | 34.89112 | -8.10978 | 37103 ft | 383 kts | 236° |
| 2026-05-04 19:10 | 34.85792 | -8.16072 | 37097 ft | 383 kts | 236° |
| 2026-05-04 19:10 | 34.82493 | -8.21128 | 37097 ft | 383 kts | 236° |
| 2026-05-04 19:11 | 34.79168 | -8.26215 | 37098 ft | 383 kts | 236° |
| 2026-05-04 19:11 | 34.75841 | -8.31299 | 37103 ft | 383 kts | 236° |
| 2026-05-04 19:12 | 34.70870 | -8.38882 | 37102 ft | 384 kts | 236° |
| 2026-05-04 19:13 | 34.67537 | -8.43955 | 37110 ft | 384 kts | 236° |
| 2026-05-04 19:13 | 34.64196 | -8.49035 | 37107 ft | 384 kts | 236° |
| 2026-05-04 19:14 | 34.60857 | -8.54104 | 37105 ft | 384 kts | 236° |
| 2026-05-04 19:14 | 34.57536 | -8.59137 | 37107 ft | 384 kts | 235° |
| 2026-05-04 19:15 | 34.54190 | -8.64203 | 37107 ft | 384 kts | 235° |
| 2026-05-04 19:15 | 34.50837 | -8.69271 | 37104 ft | 385 kts | 235° |
| 2026-05-04 19:16 | 34.47484 | -8.74334 | 37106 ft | 385 kts | 235° |
| 2026-05-04 19:16 | 34.43961 | -8.79206 | 37106 ft | 389 kts | 229° |
| 2026-05-04 19:17 | 34.39776 | -8.83412 | 37105 ft | 392 kts | 224° |
| 2026-05-04 19:17 | 34.35495 | -8.87518 | 37107 ft | 392 kts | 224° |
| 2026-05-04 19:18 | 34.31218 | -8.91630 | 37110 ft | 393 kts | 224° |
| 2026-05-04 19:18 | 34.26935 | -8.95740 | 37109 ft | 393 kts | 224° |
| 2026-05-04 19:19 | 34.22664 | -8.99831 | 37104 ft | 393 kts | 224° |
| 2026-05-04 19:19 | 34.18366 | -9.03941 | 37110 ft | 394 kts | 224° |
| 2026-05-04 19:20 | 34.14067 | -9.08047 | 37104 ft | 394 kts | 224° |
| 2026-05-04 19:20 | 34.09792 | -9.12124 | 37110 ft | 394 kts | 224° |
| 2026-05-04 19:21 | 34.05476 | -9.16236 | 37120 ft | 394 kts | 224° |
| 2026-05-04 19:21 | 34.01164 | -9.20338 | 37119 ft | 395 kts | 224° |
| 2026-05-04 19:22 | 33.96845 | -9.24440 | 37110 ft | 395 kts | 223° |
| 2026-05-04 19:22 | 33.92516 | -9.28532 | 37115 ft | 395 kts | 223° |
| 2026-05-04 19:23 | 33.88927 | -9.31936 | 37115 ft | 395 kts | 224° |
| 2026-05-04 19:23 | 33.83902 | -9.36706 | 37117 ft | 395 kts | 223° |
| 2026-05-04 19:24 | 33.79572 | -9.40800 | 37118 ft | 395 kts | 223° |
| 2026-05-04 19:24 | 33.75973 | -9.44196 | 37117 ft | 395 kts | 223° |
| 2026-05-04 19:25 | 33.71642 | -9.48278 | 37117 ft | 395 kts | 223° |
| 2026-05-04 19:25 | 33.67309 | -9.52356 | 37114 ft | 395 kts | 223° |
| 2026-05-04 19:26 | 33.62972 | -9.56433 | 37116 ft | 395 kts | 223° |
| 2026-05-04 19:26 | 33.58657 | -9.60484 | 37119 ft | 395 kts | 223° |
| 2026-05-04 19:27 | 33.54319 | -9.64552 | 37115 ft | 395 kts | 223° |
| 2026-05-04 19:27 | 33.49982 | -9.68613 | 37113 ft | 395 kts | 223° |
| 2026-05-04 19:28 | 33.45674 | -9.72642 | 37111 ft | 394 kts | 223° |
| 2026-05-04 19:28 | 33.41336 | -9.76694 | 37113 ft | 394 kts | 223° |
| 2026-05-04 19:29 | 33.37028 | -9.80712 | 37116 ft | 394 kts | 223° |
| 2026-05-04 19:29 | 33.32699 | -9.84745 | 37115 ft | 394 kts | 223° |
| 2026-05-04 19:30 | 33.28387 | -9.88757 | 37110 ft | 393 kts | 223° |
| 2026-05-04 19:30 | 33.24056 | -9.92781 | 37110 ft | 393 kts | 223° |
| 2026-05-04 19:31 | 33.19760 | -9.96768 | 37113 ft | 393 kts | 223° |
| 2026-05-04 19:31 | 33.15445 | -10.00768 | 37107 ft | 392 kts | 223° |
| 2026-05-04 19:32 | 33.11131 | -10.04761 | 37113 ft | 392 kts | 223° |
| 2026-05-04 19:32 | 33.06830 | -10.08737 | 37113 ft | 392 kts | 223° |
| 2026-05-04 19:33 | 33.02521 | -10.12717 | 37111 ft | 392 kts | 223° |
| 2026-05-04 19:33 | 32.98210 | -10.16689 | 37109 ft | 391 kts | 223° |
| 2026-05-04 19:34 | 32.93893 | -10.20657 | 37108 ft | 391 kts | 223° |
| 2026-05-04 19:34 | 32.89608 | -10.24593 | 37110 ft | 390 kts | 223° |
| 2026-05-04 19:35 | 32.85293 | -10.28552 | 37113 ft | 390 kts | 223° |
| 2026-05-04 19:35 | 32.81014 | -10.32472 | 37111 ft | 390 kts | 223° |
| 2026-05-04 19:36 | 32.76717 | -10.36404 | 37108 ft | 389 kts | 224° |
| 2026-05-04 19:36 | 32.72442 | -10.40312 | 37109 ft | 389 kts | 224° |
| 2026-05-04 19:37 | 32.68147 | -10.44232 | 37107 ft | 388 kts | 224° |
| 2026-05-04 19:37 | 32.63855 | -10.48146 | 37106 ft | 388 kts | 224° |
| 2026-05-04 19:38 | 32.59600 | -10.52020 | 37105 ft | 388 kts | 224° |
| 2026-05-04 19:38 | 32.55315 | -10.55916 | 37104 ft | 387 kts | 224° |
| 2026-05-04 19:39 | 32.51037 | -10.59802 | 37108 ft | 387 kts | 224° |
| 2026-05-04 19:39 | 32.46791 | -10.63655 | 37107 ft | 386 kts | 224° |
| 2026-05-04 19:40 | 32.42520 | -10.67525 | 37107 ft | 386 kts | 224° |
| 2026-05-04 19:40 | 32.38261 | -10.71379 | 37106 ft | 385 kts | 224° |
| 2026-05-04 19:41 | 32.34029 | -10.75205 | 37104 ft | 384 kts | 224° |
| 2026-05-04 19:41 | 32.29773 | -10.79047 | 37105 ft | 384 kts | 224° |
| 2026-05-04 19:42 | 32.25518 | -10.82884 | 37104 ft | 383 kts | 224° |
| 2026-05-04 19:42 | 32.21281 | -10.86700 | 37101 ft | 383 kts | 224° |
| 2026-05-04 19:43 | 32.17067 | -10.90491 | 37102 ft | 382 kts | 223° |
| 2026-05-04 19:43 | 32.12834 | -10.94295 | 37101 ft | 381 kts | 223° |
| 2026-05-04 19:44 | 32.08611 | -10.98084 | 37097 ft | 381 kts | 223° |
| 2026-05-04 19:44 | 32.04408 | -11.01852 | 37097 ft | 380 kts | 223° |
| 2026-05-04 19:45 | 32.00194 | -11.05624 | 37098 ft | 380 kts | 223° |
| 2026-05-04 19:45 | 31.95982 | -11.09391 | 37100 ft | 379 kts | 223° |
| 2026-05-04 19:46 | 31.91797 | -11.13129 | 37091 ft | 379 kts | 223° |
| 2026-05-04 19:46 | 31.87600 | -11.16873 | 37096 ft | 378 kts | 223° |
| 2026-05-04 19:47 | 31.83398 | -11.20617 | 37097 ft | 378 kts | 223° |
| 2026-05-04 19:47 | 31.79196 | -11.24357 | 37089 ft | 378 kts | 223° |
| 2026-05-04 19:48 | 31.75033 | -11.28060 | 37109 ft | 377 kts | 223° |
| 2026-05-04 19:48 | 31.70850 | -11.31789 | 37090 ft | 377 kts | 223° |
| 2026-05-04 19:49 | 31.66665 | -11.35523 | 37092 ft | 377 kts | 223° |
| 2026-05-04 19:49 | 31.62501 | -11.39232 | 37097 ft | 376 kts | 223° |
| 2026-05-04 19:50 | 31.58323 | -11.42949 | 37092 ft | 376 kts | 223° |
| 2026-05-04 19:50 | 31.54176 | -11.46633 | 37095 ft | 376 kts | 223° |
| 2026-05-04 19:51 | 31.50011 | -11.50329 | 37092 ft | 375 kts | 223° |
| 2026-05-04 19:51 | 31.45849 | -11.54018 | 37094 ft | 375 kts | 223° |
| 2026-05-04 19:52 | 31.41687 | -11.57703 | 37096 ft | 374 kts | 223° |
| 2026-05-04 19:52 | 31.37528 | -11.61381 | 37095 ft | 374 kts | 223° |
| 2026-05-04 19:53 | 31.33399 | -11.65028 | 37097 ft | 374 kts | 223° |
| 2026-05-04 19:53 | 31.29247 | -11.68692 | 37095 ft | 373 kts | 223° |
| 2026-05-04 19:54 | 31.25085 | -11.72360 | 37095 ft | 373 kts | 223° |
| 2026-05-04 19:54 | 31.20970 | -11.75982 | 37091 ft | 372 kts | 223° |
| 2026-05-04 19:55 | 31.16825 | -11.79627 | 37094 ft | 372 kts | 223° |
| 2026-05-04 19:55 | 31.12684 | -11.83265 | 37095 ft | 372 kts | 223° |
| 2026-05-04 19:56 | 31.08575 | -11.86870 | 37096 ft | 371 kts | 223° |
| 2026-05-04 19:56 | 31.04446 | -11.90488 | 37092 ft | 371 kts | 223° |
| 2026-05-04 19:57 | 31.00312 | -11.94107 | 37089 ft | 370 kts | 223° |
| 2026-05-04 19:57 | 30.96212 | -11.97693 | 37089 ft | 370 kts | 223° |
| 2026-05-04 19:58 | 30.92094 | -12.01289 | 37089 ft | 370 kts | 223° |
| 2026-05-04 19:58 | 30.87968 | -12.04889 | 37089 ft | 370 kts | 223° |
| 2026-05-04 19:59 | 30.83848 | -12.08480 | 37085 ft | 369 kts | 223° |
| 2026-05-04 19:59 | 30.79758 | -12.12041 | 37087 ft | 369 kts | 223° |
| 2026-05-04 20:00 | 30.75644 | -12.15619 | 37083 ft | 369 kts | 223° |
| 2026-05-04 20:00 | 30.71527 | -12.19195 | 37089 ft | 369 kts | 223° |
| 2026-05-04 20:01 | 30.67414 | -12.22765 | 37091 ft | 368 kts | 223° |
| 2026-05-04 20:01 | 30.63332 | -12.26302 | 37086 ft | 368 kts | 223° |
| 2026-05-04 20:02 | 30.59218 | -12.29865 | 37085 ft | 368 kts | 222° |
| 2026-05-04 20:02 | 30.55105 | -12.33422 | 37090 ft | 368 kts | 222° |
| 2026-05-04 20:03 | 30.50995 | -12.36975 | 37085 ft | 368 kts | 222° |
| 2026-05-04 20:03 | 30.46882 | -12.40517 | 37085 ft | 368 kts | 222° |
| 2026-05-04 20:04 | 30.42789 | -12.44031 | 37091 ft | 368 kts | 222° |
| 2026-05-04 20:04 | 30.38668 | -12.47568 | 37093 ft | 368 kts | 222° |
| 2026-05-04 20:05 | 30.34550 | -12.51099 | 37093 ft | 368 kts | 222° |
| 2026-05-04 20:05 | 30.30460 | -12.54603 | 37091 ft | 368 kts | 222° |
| 2026-05-04 20:06 | 30.26342 | -12.58126 | 37092 ft | 368 kts | 222° |
| 2026-05-04 20:06 | 30.22227 | -12.61644 | 37088 ft | 368 kts | 222° |
| 2026-05-04 20:07 | 30.18130 | -12.65142 | 37084 ft | 368 kts | 222° |
| 2026-05-04 20:07 | 30.14009 | -12.68658 | 37088 ft | 368 kts | 222° |
| 2026-05-04 20:08 | 30.09890 | -12.72167 | 37078 ft | 367 kts | 222° |
| 2026-05-04 20:08 | 30.05772 | -12.75686 | 37080 ft | 367 kts | 222° |
| 2026-05-04 20:09 | 30.01691 | -12.79177 | 37085 ft | 367 kts | 222° |
| 2026-05-04 20:09 | 29.97579 | -12.82688 | 37079 ft | 367 kts | 222° |
| 2026-05-04 20:10 | 29.93455 | -12.86205 | 37080 ft | 368 kts | 222° |
| 2026-05-04 20:10 | 29.90034 | -12.89119 | 37078 ft | 368 kts | 222° |
| 2026-05-04 20:11 | 29.85246 | -12.93193 | 37084 ft | 368 kts | 222° |
| 2026-05-04 20:11 | 29.81813 | -12.96111 | 37085 ft | 368 kts | 222° |
| 2026-05-04 20:12 | 29.77692 | -12.99611 | 37084 ft | 368 kts | 222° |
| 2026-05-04 20:12 | 29.73559 | -13.03117 | 37086 ft | 368 kts | 221° |
| 2026-05-04 20:13 | 29.69462 | -13.06590 | 37089 ft | 368 kts | 221° |
| 2026-05-04 20:13 | 29.65329 | -13.10088 | 37086 ft | 368 kts | 221° |
| 2026-05-04 20:14 | 29.61198 | -13.13581 | 37093 ft | 368 kts | 221° |
| 2026-05-04 20:14 | 29.57071 | -13.17068 | 37090 ft | 368 kts | 221° |
| 2026-05-04 20:15 | 29.52967 | -13.20532 | 37086 ft | 368 kts | 221° |
| 2026-05-04 20:15 | 29.48830 | -13.24020 | 37088 ft | 368 kts | 221° |
| 2026-05-04 20:16 | 29.44697 | -13.27501 | 37088 ft | 368 kts | 221° |
| 2026-05-04 20:16 | 29.40563 | -13.30978 | 37088 ft | 368 kts | 221° |
| 2026-05-04 20:17 | 29.36463 | -13.34424 | 37088 ft | 368 kts | 221° |
| 2026-05-04 20:17 | 29.32326 | -13.37897 | 37087 ft | 368 kts | 221° |
| 2026-05-04 20:18 | 29.28217 | -13.41344 | 37084 ft | 367 kts | 221° |
| 2026-05-04 20:18 | 29.24087 | -13.44804 | 37083 ft | 367 kts | 221° |
| 2026-05-04 20:19 | 29.19954 | -13.48264 | 37078 ft | 367 kts | 221° |
| 2026-05-04 20:19 | 29.15868 | -13.51776 | 37084 ft | 366 kts | 224° |
| 2026-05-04 20:20 | 29.12045 | -13.55568 | 37079 ft | 365 kts | 225° |
| 2026-05-04 20:20 | 29.08198 | -13.59381 | 37080 ft | 365 kts | 225° |
| 2026-05-04 20:21 | 29.04377 | -13.63156 | 37075 ft | 365 kts | 225° |
| 2026-05-04 20:21 | 28.98598 | -13.68858 | 37078 ft | 365 kts | 225° |
| 2026-05-04 20:22 | 28.94762 | -13.72638 | 37076 ft | 366 kts | 225° |
| 2026-05-04 20:22 | 28.90908 | -13.76431 | 37072 ft | 365 kts | 225° |
| 2026-05-04 20:23 | 28.87045 | -13.80229 | 37075 ft | 366 kts | 225° |
| 2026-05-04 20:23 | 28.83216 | -13.83992 | 37077 ft | 365 kts | 225° |
| 2026-05-04 20:24 | 28.79357 | -13.87779 | 37080 ft | 366 kts | 225° |
| 2026-05-04 20:24 | 28.77421 | -13.89678 | 36968 ft | 366 kts | 225° |
| 2026-05-04 20:24 | 28.75485 | -13.91575 | 36720 ft | 367 kts | 225° |
| 2026-05-04 20:25 | 28.73538 | -13.93482 | 36459 ft | 368 kts | 225° |
| 2026-05-04 20:25 | 28.71597 | -13.95383 | 36206 ft | 369 kts | 225° |
| 2026-05-04 20:25 | 28.69671 | -13.97268 | 35962 ft | 371 kts | 225° |
| 2026-05-04 20:25 | 28.67711 | -13.99186 | 35713 ft | 372 kts | 225° |
| 2026-05-04 20:26 | 28.65742 | -14.01111 | 35464 ft | 373 kts | 225° |
| 2026-05-04 20:26 | 28.63763 | -14.03045 | 35225 ft | 374 kts | 225° |
| 2026-05-04 20:26 | 28.61777 | -14.04984 | 34710 ft | 378 kts | 225° |
| 2026-05-04 20:26 | 28.59760 | -14.06955 | 33770 ft | 387 kts | 225° |
| 2026-05-04 20:27 | 28.57712 | -14.08953 | 33018 ft | 387 kts | 225° |
| 2026-05-04 20:27 | 28.55691 | -14.10922 | 32210 ft | 388 kts | 225° |
| 2026-05-04 20:27 | 28.53636 | -14.12923 | 31369 ft | 390 kts | 225° |
| 2026-05-04 20:27 | 28.51578 | -14.14926 | 30828 ft | 386 kts | 225° |
| 2026-05-04 20:28 | 28.49542 | -14.16905 | 30266 ft | 383 kts | 225° |
| 2026-05-04 20:28 | 28.47546 | -14.18846 | 29628 ft | 380 kts | 225° |
| 2026-05-04 20:28 | 28.45547 | -14.20788 | 29078 ft | 374 kts | 225° |
| 2026-05-04 20:28 | 28.43579 | -14.22700 | 28516 ft | 370 kts | 225° |
| 2026-05-04 20:29 | 28.41637 | -14.24586 | 27965 ft | 365 kts | 225° |
| 2026-05-04 20:29 | 28.39717 | -14.26452 | 27423 ft | 361 kts | 225° |
| 2026-05-04 20:29 | 28.37819 | -14.28293 | 26888 ft | 357 kts | 225° |
| 2026-05-04 20:29 | 28.35932 | -14.30122 | 26351 ft | 354 kts | 225° |
| 2026-05-04 20:30 | 28.34063 | -14.31933 | 25820 ft | 351 kts | 225° |
| 2026-05-04 20:30 | 28.32259 | -14.33680 | 25319 ft | 348 kts | 225° |
| 2026-05-04 20:30 | 28.30374 | -14.35506 | 24774 ft | 346 kts | 225° |
| 2026-05-04 20:30 | 28.28565 | -14.37257 | 24238 ft | 345 kts | 225° |
| 2026-05-04 20:31 | 28.26741 | -14.39022 | 23703 ft | 343 kts | 225° |
| 2026-05-04 20:31 | 28.24929 | -14.40774 | 23178 ft | 340 kts | 225° |
| 2026-05-04 20:31 | 28.23137 | -14.42506 | 22670 ft | 336 kts | 225° |
| 2026-05-04 20:31 | 28.21368 | -14.44215 | 22154 ft | 332 kts | 225° |
| 2026-05-04 20:32 | 28.19638 | -14.45885 | 21655 ft | 329 kts | 225° |
| 2026-05-04 20:32 | 28.17899 | -14.47564 | 21147 ft | 326 kts | 225° |
| 2026-05-04 20:32 | 28.16176 | -14.49227 | 20645 ft | 324 kts | 225° |
| 2026-05-04 20:32 | 28.14465 | -14.50877 | 20145 ft | 321 kts | 225° |
| 2026-05-04 20:33 | 28.12767 | -14.52514 | 19643 ft | 320 kts | 224° |
| 2026-05-04 20:33 | 28.11075 | -14.54145 | 19151 ft | 318 kts | 224° |
| 2026-05-04 20:33 | 28.09412 | -14.55749 | 18642 ft | 318 kts | 224° |
| 2026-05-04 20:33 | 28.07727 | -14.57372 | 18117 ft | 317 kts | 224° |
| 2026-05-04 20:34 | 28.06050 | -14.58985 | 17630 ft | 313 kts | 224° |
| 2026-05-04 20:34 | 28.04397 | -14.60575 | 17142 ft | 311 kts | 224° |
| 2026-05-04 20:34 | 28.02756 | -14.62154 | 16656 ft | 308 kts | 223° |
| 2026-05-04 20:34 | 28.01144 | -14.63704 | 16181 ft | 307 kts | 223° |
| 2026-05-04 20:35 | 27.99561 | -14.65304 | 15701 ft | 304 kts | 227° |
| 2026-05-04 20:35 | 27.98105 | -14.67035 | 15229 ft | 302 kts | 229° |
| 2026-05-04 20:35 | 27.96655 | -14.68761 | 14764 ft | 310 kts | 228° |
| 2026-05-04 20:35 | 27.95103 | -14.70606 | 14403 ft | 331 kts | 228° |
| 2026-05-04 20:36 | 27.93512 | -14.72488 | 14210 ft | 332 kts | 228° |
| 2026-05-04 20:36 | 27.91903 | -14.74389 | 13629 ft | 337 kts | 227° |
| 2026-05-04 20:36 | 27.90278 | -14.76307 | 12724 ft | 345 kts | 227° |
| 2026-05-04 20:36 | 27.88617 | -14.78266 | 12158 ft | 342 kts | 227° |
| 2026-05-04 20:37 | 27.86981 | -14.80194 | 11645 ft | 338 kts | 227° |
| 2026-05-04 20:37 | 27.85360 | -14.82105 | 11138 ft | 334 kts | 227° |
| 2026-05-04 20:37 | 27.83759 | -14.83993 | 10636 ft | 331 kts | 227° |
| 2026-05-04 20:37 | 27.82187 | -14.85845 | 10408 ft | 319 kts | 227° |
| 2026-05-04 20:38 | 27.80684 | -14.87613 | 10277 ft | 305 kts | 227° |
| 2026-05-04 20:38 | 27.79243 | -14.89310 | 10162 ft | 292 kts | 227° |
| 2026-05-04 20:38 | 27.77860 | -14.90936 | 9937 ft | 283 kts | 227° |
| 2026-05-04 20:38 | 27.76522 | -14.92512 | 9564 ft | 280 kts | 227° |
| 2026-05-04 20:39 | 27.75181 | -14.94090 | 9181 ft | 277 kts | 227° |
| 2026-05-04 20:39 | 27.73850 | -14.95654 | 8837 ft | 274 kts | 227° |
| 2026-05-04 20:39 | 27.72554 | -14.97177 | 8696 ft | 262 kts | 227° |
| 2026-05-04 20:39 | 27.71321 | -14.98622 | 8596 ft | 250 kts | 227° |
| 2026-05-04 20:40 | 27.70157 | -15.00044 | 8341 ft | 244 kts | 233° |
| 2026-05-04 20:40 | 27.69258 | -15.01617 | 8152 ft | 235 kts | 244° |
| 2026-05-04 20:40 | 27.68552 | -15.03273 | 7853 ft | 234 kts | 245° |
| 2026-05-04 20:40 | 27.67840 | -15.04925 | 7551 ft | 232 kts | 245° |
| 2026-05-04 20:41 | 27.67137 | -15.06540 | 7221 ft | 232 kts | 245° |
| 2026-05-04 20:41 | 27.66426 | -15.08167 | 6933 ft | 231 kts | 244° |
| 2026-05-04 20:41 | 27.65708 | -15.09809 | 6635 ft | 236 kts | 245° |
| 2026-05-04 20:41 | 27.64981 | -15.11472 | 6334 ft | 237 kts | 245° |
| 2026-05-04 20:42 | 27.64248 | -15.13146 | 6019 ft | 236 kts | 245° |
| 2026-05-04 20:42 | 27.63730 | -15.14887 | 5644 ft | 237 kts | 268° |
| 2026-05-04 20:42 | 27.64005 | -15.16679 | 5381 ft | 232 kts | 292° |
| 2026-05-04 20:42 | 27.64610 | -15.18360 | 5094 ft | 231 kts | 292° |
| 2026-05-04 20:43 | 27.65207 | -15.20040 | 4808 ft | 231 kts | 292° |
| 2026-05-04 20:43 | 27.65819 | -15.21778 | 4514 ft | 243 kts | 293° |
| 2026-05-04 20:43 | 27.66434 | -15.23536 | 4208 ft | 244 kts | 293° |
| 2026-05-04 20:43 | 27.67055 | -15.25315 | 3912 ft | 243 kts | 294° |
| 2026-05-04 20:44 | 27.67671 | -15.27084 | 3615 ft | 242 kts | 294° |
| 2026-05-04 20:44 | 27.68284 | -15.28849 | 3344 ft | 240 kts | 295° |
| 2026-05-04 20:44 | 27.68888 | -15.30580 | 3039 ft | 235 kts | 295° |
| 2026-05-04 20:44 | 27.69481 | -15.32277 | 2764 ft | 231 kts | 295° |
| 2026-05-04 20:45 | 27.70064 | -15.33944 | 2562 ft | 227 kts | 295° |
| 2026-05-04 20:45 | 27.70669 | -15.35577 | 2514 ft | 217 kts | 302° |
| 2026-05-04 20:45 | 27.71472 | -15.36929 | 2515 ft | 198 kts | 315° |
| 2026-05-04 20:45 | 27.72350 | -15.38059 | 2523 ft | 196 kts | 315° |
| 2026-05-04 20:46 | 27.73251 | -15.39236 | 2513 ft | 198 kts | 314° |
| 2026-05-04 20:46 | 27.74143 | -15.40420 | 2514 ft | 198 kts | 314° |
| 2026-05-04 20:46 | 27.75030 | -15.41605 | 2519 ft | 197 kts | 314° |
| 2026-05-04 20:46 | 27.75913 | -15.42782 | 2527 ft | 195 kts | 314° |
| 2026-05-04 20:47 | 27.76786 | -15.43944 | 2518 ft | 188 kts | 313° |
| 2026-05-04 20:47 | 27.77718 | -15.44816 | 2517 ft | 162 kts | 340° |
| 2026-05-04 20:47 | 27.78741 | -15.44961 | 2515 ft | 139 kts | 11° |
| 2026-05-04 20:47 | 27.79618 | -15.44669 | 2524 ft | 136 kts | 20° |
| 2026-05-04 20:48 | 27.80559 | -15.44270 | 2464 ft | 147 kts | 21° |
| 2026-05-04 20:48 | 27.81501 | -15.43852 | 2280 ft | 143 kts | 21° |
| 2026-05-04 20:48 | 27.82416 | -15.43446 | 2092 ft | 138 kts | 21° |
| 2026-05-04 20:48 | 27.83281 | -15.43062 | 1933 ft | 131 kts | 21° |
| 2026-05-04 20:49 | 27.84109 | -15.42695 | 1750 ft | 125 kts | 21° |
| 2026-05-04 20:49 | 27.84914 | -15.42337 | 1592 ft | 127 kts | 20° |
| 2026-05-04 20:49 | 27.85755 | -15.41964 | 1420 ft | 129 kts | 20° |
| 2026-05-04 20:49 | 27.86566 | -15.41603 | 1247 ft | 122 kts | 21° |
| 2026-05-04 20:50 | 27.87347 | -15.41257 | 1089 ft | 125 kts | 21° |
| 2026-05-04 20:50 | 27.88175 | -15.40890 | 924 ft | 125 kts | 21° |
| 2026-05-04 20:50 | 27.88995 | -15.40526 | 757 ft | 127 kts | 21° |
| 2026-05-04 20:50 | 27.89788 | -15.40173 | 587 ft | 119 kts | 21° |
| 2026-05-04 20:51 | 27.90593 | -15.39815 | 427 ft | 127 kts | 19° |
| 2026-05-04 20:51 | 27.91396 | -15.39460 | 252 ft | 122 kts | 19° |
| 2026-05-04 20:51 | 27.92173 | -15.39107 | 93 ft | 118 kts | 19° |
| 2026-05-04 20:51 | 27.92819 | -15.38823 | 60 ft | 72 kts | 21° |
| 2026-05-04 20:52 | 27.93104 | -15.38724 | 57 ft | 14 kts | 5° |
| 2026-05-04 20:52 | 27.93147 | -15.38722 | 66 ft | 5 kts | 2° |
| 2026-05-04 20:52 | 27.93194 | -15.38724 | 62 ft | 8 kts | 353° |
| 2026-05-04 20:52 | 27.93244 | -15.38734 | 68 ft | 6 kts | 351° |
| 2026-05-04 20:53 | 27.93285 | -15.38741 | 70 ft | 5 kts | 351° |
| 2026-05-04 20:53 | 27.93318 | -15.38747 | 72 ft | 4 kts | 351° |
| 2026-05-04 20:53 | 27.93348 | -15.38753 | 74 ft | 5 kts | 351° |
| 2026-05-04 20:53 | 27.93389 | -15.38762 | 75 ft | 7 kts | 345° |
| 2026-05-04 20:54 | 27.93421 | -15.38790 | 75 ft | 5 kts | 300° |
| 2026-05-04 20:54 | 27.93432 | -15.38824 | 84 ft | 5 kts | 290° |
| 2026-05-04 20:54 | 27.93452 | -15.38861 | 85 ft | 7 kts | 314° |
| 2026-05-04 20:54 | 27.93506 | -15.38875 | 83 ft | 10 kts | 11° |
| 2026-05-04 20:55 | 27.93581 | -15.38844 | 86 ft | 13 kts | 21° |
| 2026-05-04 20:55 | 27.93670 | -15.38805 | 85 ft | 15 kts | 19° |
| 2026-05-04 20:55 | 27.93768 | -15.38761 | 87 ft | 12 kts | 22° |
| 2026-05-04 20:55 | 27.93848 | -15.38725 | 85 ft | 13 kts | 21° |
| 2026-05-04 20:56 | 27.93924 | -15.38691 | 86 ft | 8 kts | 21° |
| 2026-05-04 20:56 | 27.93978 | -15.38668 | 84 ft | 10 kts | 20° |
| 2026-05-04 20:56 | 27.94009 | -15.38655 | 84 ft | 3 kts | 19° |
| 2026-05-04 20:56 | 27.94045 | -15.38642 | 84 ft | 6 kts | 15° |
| 2026-05-04 20:57 | 27.94060 | -15.38636 | 81 ft | 5 kts | 20° |
| 2026-05-04 20:57 | 27.94111 | -15.38614 | 71 ft | 4 kts | 15° |
| 2026-05-04 20:57 | 27.94127 | -15.38621 | 80 ft | 2 kts | 321° |
| 2026-05-04 20:57 | 27.94130 | -15.38627 | 85 ft | 0 kts | 302° |
| 2026-05-04 20:58 | 27.94133 | -15.38635 | 85 ft | 4 kts | 294° |
| 2026-05-04 20:58 | 27.94142 | -15.38661 | 86 ft | 2 kts | 290° |
| 2026-05-04 20:58 | 27.94144 | -15.38669 | 88 ft | 2 kts | 291° |
| 2026-05-04 20:58 | 27.94147 | -15.38678 | 88 ft | 1 kts | 290° |
| 2026-05-04 20:59 | 27.94152 | -15.38692 | 87 ft | 2 kts | 290° |
| 2026-05-04 20:59 | 27.94153 | -15.38694 | 87 ft | 0 kts | 291° |